aviador You're here:

PFNO Decoded Metar

in
Report Time2017-05-23 19:58:00
UTC Time2017-05-23 20:33:34
Flight Rules ifr IFR
Wind140° at 04 kt
W.Decomp.*RWY 06: 0.7 kt HW 3.9 kt RCW
W.Rank140° ranks 29
Current wind is below 140° avg. (8.6)
Visibility9999 m
Phenomena:Light Rain
Clouds:Overcast 009 Hf
Expected CloudBase > 800 ft AGL from Temp-Dew spread
Ceiling900 ft
Temp06°C
Dew Point04°C (87% RH)
AAT3.2°C
QNH1009 hPa
Raw Report
PFNO 231958Z AUTO 14004KT 7SM -RA OVC009 06/04 A2980 RMK AO2 SLPNO
P0000 T00560039=

Extra information for PFNO:More info

Social comments